Time;durP1;ratioP1;P1;durP2;ratioP2;P2;SDS_P1;SDS_P2;PMS_P1;PMS_P2;Temp;Humidity;BMP_temperature;BMP_pressure;BME280_temperature;BME280_humidity;BME280_pressure;Samples;Min_cycle;Max_cycle;Signal;HPM_P1;HPM_P2
2023/01/08 00:00:52;;;;;;;1.77;0.98;;;;;;;;;;5054323;28;20044;-84
2023/01/08 00:03:20;;;;;;;1.58;0.98;;;;;;;;;;5044751;28;20053;-83
2023/01/08 00:05:49;;;;;;;2.55;1.00;;;;;;;;;;5041756;28;20052;-84
2023/01/08 00:08:17;;;;;;;0.93;0.93;;;;;;;;;;5047718;28;20060;-83
2023/01/08 00:10:54;;;;;;;2.17;1.77;;;;;;;;;;5045903;28;20521;-83
2023/01/08 00:13:22;;;;;;;1.65;0.75;;;;;;;;;;5051075;28;20425;-83
2023/01/08 00:15:50;;;;;;;1.58;1.48;;;;;;;;;;5047447;28;20056;-83
2023/01/08 00:18:19;;;;;;;2.80;1.30;;;;;;;;;;5045671;28;20049;-84
2023/01/08 00:20:47;;;;;;;0.80;0.80;;;;;;;;;;5051777;28;20445;-83
2023/01/08 00:23:16;;;;;;;5.07;0.80;;;;;;;;;;5053568;28;20053;-84
2023/01/08 00:25:45;;;;;;;0.82;0.65;;;;;;;;;;5059854;28;20037;-83
2023/01/08 00:28:15;;;;;;;1.02;0.98;;;;;;;;;;5042461;28;20506;-84
2023/01/08 00:30:44;;;;;;;1.13;1.08;;;;;;;;;;5051087;28;20440;-83
2023/01/08 00:33:12;;;;;;;11.18;1.75;;;;;;;;;;5043718;28;20049;-84
2023/01/08 00:35:41;;;;;;;1.10;0.85;;;;;;;;;;5052390;28;20140;-83
2023/01/08 00:38:09;;;;;;;0.80;0.80;;;;;;;;;;5035684;28;20489;-84
2023/01/08 00:40:39;;;;;;;0.63;0.63;;;;;;;;;;5046532;28;20595;-83
2023/01/08 00:43:07;;;;;;;1.70;0.40;;;;;;;;;;5052154;28;20053;-83
2023/01/08 00:45:37;;;;;;;1.08;0.60;;;;;;;;;;5045404;28;20492;-83
2023/01/08 00:48:06;;;;;;;0.88;0.88;;;;;;;;;;5040114;28;20099;-84
2023/01/08 00:50:34;;;;;;;0.60;0.52;;;;;;;;;;5048038;28;20055;-84
2023/01/08 00:53:05;;;;;;;1.50;1.13;;;;;;;;;;5035475;28;20152;-84
2023/01/08 00:55:33;;;;;;;1.63;0.88;;;;;;;;;;5048823;28;20054;-83
2023/01/08 00:58:02;;;;;;;2.63;1.77;;;;;;;;;;5043320;28;20049;-84
2023/01/08 01:00:30;;;;;;;4.05;1.38;;;;;;;;;;5042188;28;20487;-84
2023/01/08 01:03:00;;;;;;;0.73;0.73;;;;;;;;;;5035853;28;20052;-82
2023/01/08 01:05:29;;;;;;;2.50;1.60;;;;;;;;;;4995160;28;20064;-83
2023/01/08 01:07:58;;;;;;;4.30;1.23;;;;;;;;;;5049996;28;20044;-84
2023/01/08 01:10:26;;;;;;;2.42;0.98;;;;;;;;;;5051724;28;20045;-84
2023/01/08 01:12:54;;;;;;;0.88;0.88;;;;;;;;;;5045989;28;20464;-84
2023/01/08 01:15:22;;;;;;;0.93;0.93;;;;;;;;;;5048954;28;20151;-84
2023/01/08 01:17:51;;;;;;;1.60;0.93;;;;;;;;;;5050488;28;20052;-84
2023/01/08 01:20:22;;;;;;;1.75;1.65;;;;;;;;;;5042634;28;20128;-84
2023/01/08 01:22:51;;;;;;;1.27;0.98;;;;;;;;;;5037322;28;23142;-83
2023/01/08 01:25:19;;;;;;;3.35;2.40;;;;;;;;;;5048345;28;20056;-84
2023/01/08 01:27:47;;;;;;;5.20;1.77;;;;;;;;;;5054835;28;20076;-84
2023/01/08 01:30:16;;;;;;;0.68;0.63;;;;;;;;;;5038046;28;20053;-84
2023/01/08 01:32:44;;;;;;;1.27;0.90;;;;;;;;;;5047354;28;20087;-84
2023/01/08 01:35:12;;;;;;;1.45;0.70;;;;;;;;;;5044845;28;20048;-84
2023/01/08 01:37:42;;;;;;;0.32;0.32;;;;;;;;;;5050740;28;20057;-84
2023/01/08 01:40:12;;;;;;;1.30;0.82;;;;;;;;;;5039434;28;20053;-84
2023/01/08 01:42:40;;;;;;;1.05;0.95;;;;;;;;;;5049103;28;20059;-84
2023/01/08 01:45:15;;;;;;;1.13;1.13;;;;;;;;;;5047768;28;20066;-84
2023/01/08 01:47:45;;;;;;;0.50;0.50;;;;;;;;;;5038622;28;20481;-84
2023/01/08 01:50:15;;;;;;;3.70;1.10;;;;;;;;;;5050353;28;20052;-84
2023/01/08 01:52:46;;;;;;;0.77;0.77;;;;;;;;;;5051125;28;20067;-84
2023/01/08 01:55:15;;;;;;;0.40;0.40;;;;;;;;;;5044373;28;20060;-84
2023/01/08 01:57:46;;;;;;;1.20;0.73;;;;;;;;;;5038302;28;20049;-84
2023/01/08 02:00:14;;;;;;;0.50;0.50;;;;;;;;;;5044281;28;20498;-84
2023/01/08 02:02:43;;;;;;;0.43;0.43;;;;;;;;;;5045533;28;20056;-84
2023/01/08 02:05:11;;;;;;;3.05;0.80;;;;;;;;;;5040096;28;20083;-84
2023/01/08 02:07:45;;;;;;;2.22;0.60;;;;;;;;;;5044508;28;20073;-84
2023/01/08 02:10:18;;;;;;;2.20;0.87;;;;;;;;;;5014205;28;20140;-84
2023/01/08 02:12:48;;;;;;;0.70;0.70;;;;;;;;;;5049342;28;20049;-84
2023/01/08 02:15:20;;;;;;;1.02;0.93;;;;;;;;;;5046806;28;20090;-84
2023/01/08 02:17:50;;;;;;;3.30;0.63;;;;;;;;;;5041168;28;20049;-84
2023/01/08 02:20:20;;;;;;;0.80;0.73;;;;;;;;;;5046118;28;20041;-83
2023/01/08 02:22:55;;;;;;;0.73;0.73;;;;;;;;;;5038224;28;20414;-84
2023/01/08 02:25:31;;;;;;;0.47;0.47;;;;;;;;;;5035453;28;20656;-84
2023/01/08 02:28:02;;;;;;;0.70;0.57;;;;;;;;;;5049282;28;20052;-84
2023/01/08 02:30:30;;;;;;;3.53;1.10;;;;;;;;;;5038387;28;20072;-83
2023/01/08 02:32:59;;;;;;;0.77;0.77;;;;;;;;;;5040834;28;20057;-84
2023/01/08 02:35:34;;;;;;;1.08;0.98;;;;;;;;;;5043722;28;20048;-84
2023/01/08 02:38:02;;;;;;;1.38;0.82;;;;;;;;;;5042668;28;20049;-84
2023/01/08 02:40:34;;;;;;;0.75;0.52;;;;;;;;;;5037646;28;20049;-84
2023/01/08 02:43:08;;;;;;;0.68;0.68;;;;;;;;;;5052888;28;20151;-83
2023/01/08 02:45:39;;;;;;;0.73;0.65;;;;;;;;;;5047982;28;20060;-84
2023/01/08 02:48:10;;;;;;;0.88;0.82;;;;;;;;;;5045062;28;20076;-84
2023/01/08 02:50:41;;;;;;;1.77;1.23;;;;;;;;;;5038895;28;20049;-84
2023/01/08 02:53:11;;;;;;;1.77;1.20;;;;;;;;;;5038271;28;20505;-84
2023/01/08 02:55:41;;;;;;;1.60;0.57;;;;;;;;;;5034374;28;20512;-84
2023/01/08 02:58:12;;;;;;;0.45;0.45;;;;;;;;;;5041969;28;20164;-82
2023/01/08 03:00:41;;;;;;;0.50;0.50;;;;;;;;;;5038229;28;20123;-84
2023/01/08 03:03:11;;;;;;;0.93;0.93;;;;;;;;;;5050028;28;20043;-83
2023/01/08 03:05:40;;;;;;;0.55;0.55;;;;;;;;;;5047554;28;20497;-83
2023/01/08 03:08:09;;;;;;;0.40;0.40;;;;;;;;;;5050128;28;20078;-83
2023/01/08 03:10:39;;;;;;;0.93;0.93;;;;;;;;;;5046371;28;20052;-83
2023/01/08 03:13:09;;;;;;;1.17;0.82;;;;;;;;;;5050766;28;20037;-83
2023/01/08 03:15:43;;;;;;;1.10;0.85;;;;;;;;;;5044383;28;20405;-83
2023/01/08 03:18:13;;;;;;;2.05;1.08;;;;;;;;;;5038375;28;20414;-83
2023/01/08 03:20:41;;;;;;;0.85;0.73;;;;;;;;;;5043286;28;20122;-84
2023/01/08 03:23:11;;;;;;;0.57;0.57;;;;;;;;;;5051100;28;20044;-83
2023/01/08 03:25:41;;;;;;;0.63;0.63;;;;;;;;;;5041177;28;20075;-83
2023/01/08 03:28:13;;;;;;;0.50;0.50;;;;;;;;;;5039439;28;20055;-83
2023/01/08 03:30:44;;;;;;;0.63;0.63;;;;;;;;;;5047307;28;20132;-83
2023/01/08 03:33:13;;;;;;;0.60;0.60;;;;;;;;;;5047250;28;20135;-84
2023/01/08 03:35:43;;;;;;;0.98;0.47;;;;;;;;;;5048380;28;20104;-83
2023/01/08 03:38:13;;;;;;;0.40;0.40;;;;;;;;;;5051355;28;20502;-83
2023/01/08 03:40:44;;;;;;;0.52;0.50;;;;;;;;;;5042339;28;20409;-84
2023/01/08 03:43:13;;;;;;;0.80;0.80;;;;;;;;;;5043439;28;20049;-84
2023/01/08 03:45:46;;;;;;;0.28;0.28;;;;;;;;;;5045932;28;20041;-83
2023/01/08 03:48:14;;;;;;;0.88;0.80;;;;;;;;;;5054773;28;20065;-83
2023/01/08 03:50:43;;;;;;;0.88;0.88;;;;;;;;;;5043508;28;20120;-84
2023/01/08 03:53:11;;;;;;;0.43;0.43;;;;;;;;;;5052095;28;20486;-83
2023/01/08 03:55:39;;;;;;;0.30;0.30;;;;;;;;;;5041882;28;20132;-83
2023/01/08 03:58:08;;;;;;;0.85;0.35;;;;;;;;;;5042497;28;20045;-83
2023/01/08 04:00:36;;;;;;;0.63;0.38;;;;;;;;;;5035749;28;20437;-83
2023/01/08 04:03:06;;;;;;;1.10;0.70;;;;;;;;;;5041283;28;20128;-83
2023/01/08 04:05:34;;;;;;;0.32;0.30;;;;;;;;;;5039291;28;20063;-84
2023/01/08 04:08:02;;;;;;;0.55;0.55;;;;;;;;;;5042354;28;20049;-83
2023/01/08 04:10:31;;;;;;;0.88;0.88;;;;;;;;;;5046876;28;20151;-83
2023/01/08 04:12:59;;;;;;;0.70;0.70;;;;;;;;;;5043696;28;20047;-83
2023/01/08 04:15:27;;;;;;;3.00;0.38;;;;;;;;;;5042995;28;20077;-83
2023/01/08 04:17:56;;;;;;;0.45;0.45;;;;;;;;;;5048460;28;20102;-83
2023/01/08 04:20:25;;;;;;;0.40;0.40;;;;;;;;;;5047658;28;20059;-83
2023/01/08 04:22:54;;;;;;;0.75;0.75;;;;;;;;;;5045980;28;20053;-83
2023/01/08 04:25:22;;;;;;;0.40;0.40;;;;;;;;;;5040380;28;20041;-82
2023/01/08 04:27:50;;;;;;;0.35;0.32;;;;;;;;;;5044074;28;20051;-83
2023/01/08 04:30:18;;;;;;;0.45;0.45;;;;;;;;;;5041638;28;20042;-83
2023/01/08 04:32:47;;;;;;;0.30;0.30;;;;;;;;;;5046449;28;20059;-83
2023/01/08 04:35:15;;;;;;;0.82;0.52;;;;;;;;;;5046675;28;20052;-83
2023/01/08 04:37:45;;;;;;;0.63;0.50;;;;;;;;;;5040707;28;20040;-83
2023/01/08 04:40:13;;;;;;;0.45;0.45;;;;;;;;;;5042733;28;20049;-83
2023/01/08 04:42:41;;;;;;;0.60;0.60;;;;;;;;;;5053638;28;20051;-83
2023/01/08 04:45:10;;;;;;;0.70;0.70;;;;;;;;;;5052499;28;20084;-83
2023/01/08 04:47:38;;;;;;;0.30;0.30;;;;;;;;;;5039835;28;20499;-83
2023/01/08 04:50:07;;;;;;;0.55;0.55;;;;;;;;;;5044262;28;20048;-84
2023/01/08 04:52:35;;;;;;;0.50;0.50;;;;;;;;;;5046371;28;20136;-84
2023/01/08 04:55:06;;;;;;;1.27;0.73;;;;;;;;;;5043360;28;20049;-83
2023/01/08 04:57:34;;;;;;;0.10;0.10;;;;;;;;;;5051956;28;20477;-83
2023/01/08 05:00:02;;;;;;;0.50;0.40;;;;;;;;;;5041932;28;20040;-83
2023/01/08 05:02:31;;;;;;;0.57;0.57;;;;;;;;;;5055360;28;20064;-83
2023/01/08 05:04:59;;;;;;;0.20;0.20;;;;;;;;;;5051859;28;20053;-83
2023/01/08 05:07:27;;;;;;;0.93;0.65;;;;;;;;;;5049955;28;20067;-83
2023/01/08 05:09:56;;;;;;;0.63;0.63;;;;;;;;;;5048597;28;20056;-83
2023/01/08 05:12:25;;;;;;;0.20;0.20;;;;;;;;;;5051835;28;20053;-83
2023/01/08 05:14:54;;;;;;;2.60;1.05;;;;;;;;;;5044238;28;20053;-82
2023/01/08 05:17:22;;;;;;;0.28;0.28;;;;;;;;;;5050951;28;20052;-83
2023/01/08 05:19:50;;;;;;;0.28;0.28;;;;;;;;;;5048675;28;20045;-83
2023/01/08 05:22:19;;;;;;;0.10;0.10;;;;;;;;;;5048841;28;20044;-83
2023/01/08 05:24:47;;;;;;;0.82;0.63;;;;;;;;;;5048048;28;20374;-83
2023/01/08 05:27:15;;;;;;;0.30;0.30;;;;;;;;;;5050082;28;20513;-82
2023/01/08 05:29:45;;;;;;;0.47;0.47;;;;;;;;;;5055681;28;20084;-82
2023/01/08 05:32:15;;;;;;;0.25;0.25;;;;;;;;;;5043642;28;20088;-84
2023/01/08 05:34:43;;;;;;;0.45;0.45;;;;;;;;;;5039759;28;20093;-83
2023/01/08 05:37:11;;;;;;;1.50;0.60;;;;;;;;;;5042163;28;20049;-83
2023/01/08 05:39:40;;;;;;;0.47;0.47;;;;;;;;;;5056105;28;20053;-83
2023/01/08 05:42:08;;;;;;;0.20;0.20;;;;;;;;;;5052920;28;20409;-83
2023/01/08 05:44:36;;;;;;;0.73;0.73;;;;;;;;;;5034251;28;20136;-83
2023/01/08 05:47:06;;;;;;;2.25;0.40;;;;;;;;;;5043295;28;20042;-83
2023/01/08 05:49:34;;;;;;;2.95;0.50;;;;;;;;;;5040729;28;20056;-83
2023/01/08 05:52:03;;;;;;;0.80;0.80;;;;;;;;;;5041388;28;20064;-83
2023/01/08 05:54:31;;;;;;;0.45;0.45;;;;;;;;;;5033154;28;20439;-83
2023/01/08 05:56:59;;;;;;;0.28;0.28;;;;;;;;;;5050574;28;20504;-83
2023/01/08 05:59:27;;;;;;;0.60;0.60;;;;;;;;;;5049711;28;20049;-83
2023/01/08 06:01:56;;;;;;;0.63;0.50;;;;;;;;;;5045563;28;20052;-83
2023/01/08 06:04:25;;;;;;;0.47;0.47;;;;;;;;;;5045229;28;20051;-83
2023/01/08 06:06:54;;;;;;;1.00;0.80;;;;;;;;;;5040035;28;20436;-83
2023/01/08 06:09:22;;;;;;;0.20;0.20;;;;;;;;;;5043034;28;20427;-83
2023/01/08 06:11:51;;;;;;;0.80;0.30;;;;;;;;;;5048202;28;20045;-83
2023/01/08 06:14:20;;;;;;;0.73;0.60;;;;;;;;;;5048742;28;20041;-83
2023/01/08 06:16:48;;;;;;;0.20;0.20;;;;;;;;;;5048986;28;20049;-83
2023/01/08 06:19:17;;;;;;;0.20;0.20;;;;;;;;;;5048607;28;20409;-83
2023/01/08 06:21:47;;;;;;;0.10;0.10;;;;;;;;;;5045906;28;20539;-83
2023/01/08 06:24:15;;;;;;;0.20;0.20;;;;;;;;;;5048214;28;20144;-83
2023/01/08 06:26:44;;;;;;;0.30;0.30;;;;;;;;;;5036845;28;20049;-83
2023/01/08 06:29:12;;;;;;;0.50;0.50;;;;;;;;;;5044967;28;20063;-83
2023/01/08 06:31:40;;;;;;;1.77;0.55;;;;;;;;;;5048186;28;20481;-83
2023/01/08 06:34:08;;;;;;;0.15;0.15;;;;;;;;;;5045639;28;20049;-83
2023/01/08 06:36:37;;;;;;;0.20;0.20;;;;;;;;;;5048239;28;20045;-83
2023/01/08 06:39:07;;;;;;;0.25;0.25;;;;;;;;;;5039030;28;20059;-83
2023/01/08 06:41:35;;;;;;;0.20;0.20;;;;;;;;;;5051174;28;20485;-84
2023/01/08 06:44:04;;;;;;;0.20;0.20;;;;;;;;;;5048528;28;20508;-83
2023/01/08 06:46:37;;;;;;;0.20;0.20;;;;;;;;;;5039395;28;20481;-83
2023/01/08 06:49:05;;;;;;;1.42;1.35;;;;;;;;;;5047396;28;20080;-84
2023/01/08 06:51:33;;;;;;;0.68;0.68;;;;;;;;;;5040759;28;20049;-83
2023/01/08 06:54:02;;;;;;;1.02;0.50;;;;;;;;;;5054505;28;20151;-84
2023/01/08 06:56:31;;;;;;;0.25;0.25;;;;;;;;;;5048726;28;20085;-83
2023/01/08 06:59:12;;;;;;;0.20;0.20;;;;;;;;;;5047572;28;20059;-83
2023/01/08 07:01:41;;;;;;;0.20;0.20;;;;;;;;;;5046199;28;20060;-91
2023/01/08 07:04:09;;;;;;;0.20;0.20;;;;;;;;;;5042680;28;20090;-84
2023/01/08 07:06:37;;;;;;;0.20;0.20;;;;;;;;;;5035088;28;20064;-85
2023/01/08 07:09:06;;;;;;;0.40;0.40;;;;;;;;;;5039858;28;20052;-84
2023/01/08 07:11:36;;;;;;;0.28;0.28;;;;;;;;;;5039666;28;20079;-84
2023/01/08 07:14:04;;;;;;;0.43;0.35;;;;;;;;;;5044003;28;20041;-83
2023/01/08 07:16:32;;;;;;;0.20;0.20;;;;;;;;;;5037349;28;20060;-84
2023/01/08 07:19:01;;;;;;;0.30;0.30;;;;;;;;;;5051712;28;20052;-84
2023/01/08 07:21:29;;;;;;;1.83;0.40;;;;;;;;;;5042932;28;20520;-85
2023/01/08 07:23:58;;;;;;;0.22;0.22;;;;;;;;;;5046521;28;20049;-84
2023/01/08 07:26:27;;;;;;;0.60;0.60;;;;;;;;;;5037869;28;20476;-84
2023/01/08 07:28:57;;;;;;;0.55;0.55;;;;;;;;;;5038079;28;20064;-84
2023/01/08 07:31:25;;;;;;;0.20;0.20;;;;;;;;;;5041618;28;20052;-88
2023/01/08 07:33:53;;;;;;;0.20;0.20;;;;;;;;;;5044648;28;20041;-85
2023/01/08 07:36:23;;;;;;;0.55;0.32;;;;;;;;;;5037477;28;20045;-84
2023/01/08 07:38:51;;;;;;;0.20;0.20;;;;;;;;;;5039987;28;20045;-86
2023/01/08 07:41:20;;;;;;;0.20;0.20;;;;;;;;;;5038885;28;20044;-85
2023/01/08 07:43:48;;;;;;;0.28;0.28;;;;;;;;;;5044432;28;20045;-85
2023/01/08 07:46:18;;;;;;;0.22;0.22;;;;;;;;;;5043821;28;20049;-85
2023/01/08 07:48:46;;;;;;;0.40;0.40;;;;;;;;;;5051883;28;20053;-83
2023/01/08 07:51:15;;;;;;;1.65;0.32;;;;;;;;;;5037766;28;20068;-84
2023/01/08 07:53:43;;;;;;;0.35;0.35;;;;;;;;;;5048656;28;20409;-84
2023/01/08 07:56:11;;;;;;;0.45;0.40;;;;;;;;;;5043672;28;20045;-84
2023/01/08 07:58:40;;;;;;;0.22;0.22;;;;;;;;;;5041515;28;20063;-84
2023/01/08 08:01:10;;;;;;;0.30;0.30;;;;;;;;;;5033403;28;20049;-84
2023/01/08 08:03:39;;;;;;;0.20;0.20;;;;;;;;;;5040340;28;20054;-84
2023/01/08 08:06:08;;;;;;;0.10;0.10;;;;;;;;;;5044411;28;20123;-85
2023/01/08 08:08:37;;;;;;;2.70;0.40;;;;;;;;;;5038517;28;20128;-84
2023/01/08 08:11:05;;;;;;;0.30;0.30;;;;;;;;;;5041372;28;20144;-85
2023/01/08 08:13:33;;;;;;;0.40;0.40;;;;;;;;;;5049368;28;20045;-84
2023/01/08 08:16:02;;;;;;;0.47;0.47;;;;;;;;;;5045430;28;20057;-84
2023/01/08 08:18:30;;;;;;;0.40;0.40;;;;;;;;;;5041010;28;20098;-84
2023/01/08 08:21:00;;;;;;;1.00;0.30;;;;;;;;;;5043323;28;20064;-84
2023/01/08 08:23:28;;;;;;;1.25;0.65;;;;;;;;;;5044684;28;20059;-84
2023/01/08 08:25:57;;;;;;;0.82;0.82;;;;;;;;;;5047766;28;20045;-84
2023/01/08 08:28:25;;;;;;;0.20;0.20;;;;;;;;;;5043070;28;20071;-85
2023/01/08 08:30:54;;;;;;;0.10;0.10;;;;;;;;;;5052201;28;20457;-84
2023/01/08 08:33:24;;;;;;;0.30;0.20;;;;;;;;;;5044433;28;20049;-85
2023/01/08 08:35:53;;;;;;;0.52;0.52;;;;;;;;;;5040476;28;20084;-85
2023/01/08 08:38:23;;;;;;;0.20;0.20;;;;;;;;;;5055666;28;20140;-85
2023/01/08 08:40:52;;;;;;;0.25;0.25;;;;;;;;;;5050561;28;20049;-85
2023/01/08 08:43:20;;;;;;;0.20;0.20;;;;;;;;;;5042267;28;20048;-85
2023/01/08 08:45:48;;;;;;;0.10;0.10;;;;;;;;;;5047615;28;20052;-85
2023/01/08 08:48:19;;;;;;;0.15;0.15;;;;;;;;;;5045050;28;20041;-84
2023/01/08 08:50:53;;;;;;;0.43;0.43;;;;;;;;;;5046242;28;20386;-84
2023/01/08 08:53:23;;;;;;;0.20;0.20;;;;;;;;;;5051992;28;20120;-85
2023/01/08 08:55:54;;;;;;;0.20;0.20;;;;;;;;;;5049991;28;20048;-85
2023/01/08 08:58:22;;;;;;;0.70;0.38;;;;;;;;;;5051709;28;20049;-83
2023/01/08 09:00:51;;;;;;;0.30;0.30;;;;;;;;;;5047664;28;20059;-85
2023/01/08 09:03:19;;;;;;;0.63;0.63;;;;;;;;;;5041768;28;20049;-85
2023/01/08 09:05:47;;;;;;;0.43;0.43;;;;;;;;;;5053551;28;20052;-85
2023/01/08 09:08:16;;;;;;;0.77;0.77;;;;;;;;;;5047536;28;20052;-85
2023/01/08 09:10:45;;;;;;;0.20;0.20;;;;;;;;;;5052952;28;20481;-85
2023/01/08 09:13:14;;;;;;;0.35;0.35;;;;;;;;;;5039344;28;20060;-85
2023/01/08 09:15:42;;;;;;;0.98;0.30;;;;;;;;;;5054716;28;20048;-85
2023/01/08 09:18:11;;;;;;;0.30;0.30;;;;;;;;;;5044975;28;20394;-85
2023/01/08 09:20:40;;;;;;;0.20;0.20;;;;;;;;;;5051391;28;20045;-85
2023/01/08 09:23:08;;;;;;;0.98;0.47;;;;;;;;;;5038107;28;20076;-85
2023/01/08 09:25:37;;;;;;;0.60;0.60;;;;;;;;;;5052806;28;20049;-85
2023/01/08 09:28:08;;;;;;;0.17;0.17;;;;;;;;;;5049195;28;20485;-85
2023/01/08 09:30:36;;;;;;;0.13;0.13;;;;;;;;;;5053268;28;20128;-85
2023/01/08 09:33:05;;;;;;;0.75;0.38;;;;;;;;;;5048422;28;20498;-85
2023/01/08 09:35:34;;;;;;;0.20;0.20;;;;;;;;;;5054481;28;20053;-83
2023/01/08 09:38:02;;;;;;;0.35;0.35;;;;;;;;;;5047718;28;20045;-82
2023/01/08 09:40:32;;;;;;;0.70;0.70;;;;;;;;;;5041979;28;20048;-82
2023/01/08 09:43:02;;;;;;;0.35;0.35;;;;;;;;;;5043864;28;20055;-82
2023/01/08 09:45:35;;;;;;;0.77;0.77;;;;;;;;;;5048513;28;20048;-82
2023/01/08 09:48:06;;;;;;;0.68;0.68;;;;;;;;;;5047868;28;20052;-82
2023/01/08 09:50:36;;;;;;;0.55;0.55;;;;;;;;;;5047058;28;20033;-83
2023/01/08 09:53:04;;;;;;;0.47;0.40;;;;;;;;;;5043784;28;20107;-83
2023/01/08 09:55:34;;;;;;;1.98;0.75;;;;;;;;;;5053234;28;20123;-82
2023/01/08 09:58:03;;;;;;;0.35;0.35;;;;;;;;;;5022350;28;20560;-83
2023/01/08 10:00:32;;;;;;;0.98;0.45;;;;;;;;;;5049749;28;20401;-84
2023/01/08 10:03:02;;;;;;;2.10;0.68;;;;;;;;;;5049370;28;20052;-84
2023/01/08 10:05:31;;;;;;;1.30;0.90;;;;;;;;;;5039420;28;20046;-85
2023/01/08 10:07:59;;;;;;;0.57;0.32;;;;;;;;;;5031645;28;20052;-84
2023/01/08 10:10:29;;;;;;;0.30;0.25;;;;;;;;;;5048834;28;20052;-84
2023/01/08 10:12:59;;;;;;;0.30;0.30;;;;;;;;;;5033064;28;20048;-84
2023/01/08 10:15:27;;;;;;;0.28;0.28;;;;;;;;;;5049300;28;20057;-84
2023/01/08 10:17:59;;;;;;;0.25;0.25;;;;;;;;;;5045309;28;20051;-84
2023/01/08 10:20:29;;;;;;;0.40;0.40;;;;;;;;;;5048503;28;20056;-84
2023/01/08 10:22:57;;;;;;;0.30;0.30;;;;;;;;;;5041928;28;20046;-84
2023/01/08 10:25:27;;;;;;;4.40;0.50;;;;;;;;;;5048011;28;20053;-84
2023/01/08 10:27:58;;;;;;;0.13;0.13;;;;;;;;;;5045399;28;20049;-83
2023/01/08 10:30:34;;;;;;;0.28;0.28;;;;;;;;;;5037659;28;20406;-84
2023/01/08 10:33:04;;;;;;;0.47;0.30;;;;;;;;;;5039405;28;20041;-84
2023/01/08 10:35:35;;;;;;;3.20;0.30;;;;;;;;;;5036778;28;20111;-84
2023/01/08 10:38:04;;;;;;;1.98;0.70;;;;;;;;;;5037763;28;20599;-84
2023/01/08 10:40:36;;;;;;;0.25;0.20;;;;;;;;;;5050501;28;20057;-84
2023/01/08 10:43:07;;;;;;;0.88;0.28;;;;;;;;;;5043805;28;20045;-84
2023/01/08 10:45:35;;;;;;;0.30;0.30;;;;;;;;;;5051274;28;20421;-84
2023/01/08 10:48:06;;;;;;;1.55;0.45;;;;;;;;;;5040676;28;20051;-83
2023/01/08 10:50:36;;;;;;;0.70;0.70;;;;;;;;;;5039957;28;20087;-83
2023/01/08 10:53:05;;;;;;;0.70;0.50;;;;;;;;;;5039778;28;20096;-84
2023/01/08 10:55:36;;;;;;;0.38;0.38;;;;;;;;;;5050801;28;20055;-84
2023/01/08 10:58:05;;;;;;;2.72;0.68;;;;;;;;;;5035322;28;20045;-84
2023/01/08 11:00:34;;;;;;;0.28;0.28;;;;;;;;;;5047569;28;20064;-84
2023/01/08 11:03:04;;;;;;;0.20;0.20;;;;;;;;;;5032703;28;20051;-84
2023/01/08 11:05:34;;;;;;;0.52;0.35;;;;;;;;;;5022447;28;20159;-84
2023/01/08 11:08:09;;;;;;;0.57;0.57;;;;;;;;;;5035148;28;20053;-84
2023/01/08 11:10:37;;;;;;;0.20;0.20;;;;;;;;;;5050135;28;20044;-84
2023/01/08 11:13:07;;;;;;;1.45;0.57;;;;;;;;;;5037832;28;20357;-84
2023/01/08 11:15:37;;;;;;;1.60;0.73;;;;;;;;;;5034507;28;20388;-84
2023/01/08 11:18:07;;;;;;;1.98;0.60;;;;;;;;;;5035768;28;20050;-84
2023/01/08 11:20:35;;;;;;;0.52;0.28;;;;;;;;;;5039860;28;20056;-83
2023/01/08 11:23:14;;;;;;;0.80;0.20;;;;;;;;;;5038538;28;20536;-83
2023/01/08 11:25:43;;;;;;;0.85;0.65;;;;;;;;;;5041437;28;20504;-83
2023/01/08 11:28:16;;;;;;;0.38;0.38;;;;;;;;;;5037206;28;20060;-82
2023/01/08 11:30:45;;;;;;;0.47;0.40;;;;;;;;;;5039535;28;20536;-85
2023/01/08 11:33:17;;;;;;;1.55;0.40;;;;;;;;;;5041459;28;20052;-85
2023/01/08 11:35:47;;;;;;;6.25;0.43;;;;;;;;;;5048818;28;20502;-92
2023/01/08 11:38:17;;;;;;;0.30;0.30;;;;;;;;;;5035499;28;20489;-84
2023/01/08 11:40:51;;;;;;;2.67;0.38;;;;;;;;;;5035663;28;20666;-83
2023/01/08 11:43:24;;;;;;;0.45;0.30;;;;;;;;;;5043794;28;20073;-83
2023/01/08 11:46:10;;;;;;;0.30;0.30;;;;;;;;;;5032859;28;20589;-86
2023/01/08 11:48:43;;;;;;;0.43;0.35;;;;;;;;;;5043685;28;20073;-87
2023/01/08 11:51:22;;;;;;;0.30;0.30;;;;;;;;;;5036366;28;20492;-86
2023/01/08 11:53:56;;;;;;;0.55;0.55;;;;;;;;;;5036164;28;20071;-86
2023/01/08 11:56:32;;;;;;;1.67;0.45;;;;;;;;;;5034586;28;20459;-87
2023/01/08 11:59:06;;;;;;;3.00;0.65;;;;;;;;;;5038167;28;20464;-90
2023/01/08 12:01:42;;;;;;;0.20;0.20;;;;;;;;;;5040418;28;20491;-84
2023/01/08 12:04:20;;;;;;;0.28;0.28;;;;;;;;;;5042839;28;20342;-85
2023/01/08 12:06:53;;;;;;;1.38;0.32;;;;;;;;;;5039636;28;20044;-86
2023/01/08 12:09:28;;;;;;;0.35;0.35;;;;;;;;;;5043871;28;20065;-87
2023/01/08 12:12:01;;;;;;;0.85;0.52;;;;;;;;;;5042126;28;20502;-85
2023/01/08 12:14:36;;;;;;;0.20;0.20;;;;;;;;;;5039630;28;20055;-87
2023/01/08 12:17:04;;;;;;;;;;;;;;;;;;5036592;28;20045;-86
2023/01/08 12:19:41;;;;;;;0.30;0.30;;;;;;;;;;5037817;28;19924;-87
2023/01/08 12:22:17;;;;;;;0.20;0.20;;;;;;;;;;5043931;28;20056;-88
2023/01/08 12:24:56;;;;;;;0.40;0.30;;;;;;;;;;5040119;28;20049;-85
2023/01/08 12:27:29;;;;;;;4.68;0.70;;;;;;;;;;5041624;28;20532;-86
2023/01/08 12:30:19;;;;;;;0.68;0.50;;;;;;;;;;5041652;28;20053;-85
2023/01/08 12:32:50;;;;;;;0.38;0.30;;;;;;;;;;5044491;28;20063;-87
2023/01/08 12:35:22;;;;;;;0.30;0.30;;;;;;;;;;5037025;28;20490;-85
2023/01/08 12:37:52;;;;;;;0.20;0.20;;;;;;;;;;5035318;28;20095;-86
2023/01/08 12:40:27;;;;;;;2.38;0.60;;;;;;;;;;5047321;28;20088;-86
2023/01/08 12:42:56;;;;;;;0.30;0.30;;;;;;;;;;5037029;28;20049;-88
2023/01/08 12:45:33;;;;;;;0.32;0.32;;;;;;;;;;5041403;28;20048;-86
2023/01/08 12:48:04;;;;;;;0.65;0.40;;;;;;;;;;5032195;28;20106;-89
2023/01/08 12:50:37;;;;;;;0.17;0.17;;;;;;;;;;5034946;28;20144;-87
2023/01/08 12:53:09;;;;;;;0.40;0.40;;;;;;;;;;5033082;28;20464;-87
2023/01/08 12:55:43;;;;;;;1.42;0.68;;;;;;;;;;5036946;28;20045;-89
2023/01/08 12:58:19;;;;;;;1.00;0.75;;;;;;;;;;5042967;28;20448;-87
2023/01/08 13:00:52;;;;;;;1.30;0.63;;;;;;;;;;5030140;28;20069;-88
2023/01/08 13:03:23;;;;;;;7.13;0.50;;;;;;;;;;5040107;28;20053;-83
2023/01/08 13:05:51;;;;;;;2.35;0.70;;;;;;;;;;5039763;28;20087;-89
2023/01/08 13:08:26;;;;;;;0.85;0.50;;;;;;;;;;5040705;28;20073;-87
2023/01/08 13:10:56;;;;;;;0.47;0.20;;;;;;;;;;5034748;28;20076;-88
2023/01/08 13:13:30;;;;;;;0.55;0.38;;;;;;;;;;5037319;28;20049;-85
2023/01/08 13:16:08;;;;;;;0.85;0.50;;;;;;;;;;5045096;28;20140;-87
2023/01/08 13:18:37;;;;;;;0.30;0.30;;;;;;;;;;5041302;28;20052;-84
2023/01/08 13:21:06;;;;;;;0.40;0.40;;;;;;;;;;5052479;28;20051;-85
2023/01/08 13:23:37;;;;;;;0.40;0.40;;;;;;;;;;5039589;28;20060;-88
2023/01/08 13:26:09;;;;;;;3.00;0.50;;;;;;;;;;5044986;28;20351;-86
2023/01/08 13:28:43;;;;;;;1.45;0.30;;;;;;;;;;5043464;28;20473;-88
2023/01/08 13:31:27;;;;;;;0.25;0.25;;;;;;;;;;5047986;28;20053;-87
2023/01/08 13:33:55;;;;;;;0.20;0.20;;;;;;;;;;5042196;28;20098;-88
2023/01/08 13:36:25;;;;;;;2.08;0.50;;;;;;;;;;5047137;28;20083;-85
2023/01/08 13:39:05;;;;;;;0.30;0.30;;;;;;;;;;5052406;28;20045;-88
2023/01/08 13:41:35;;;;;;;2.28;0.90;;;;;;;;;;5046456;28;20044;-87
2023/01/08 13:44:05;;;;;;;2.38;0.95;;;;;;;;;;5042261;28;20472;-86
2023/01/08 13:46:35;;;;;;;0.22;0.22;;;;;;;;;;5042201;28;20050;-87
2023/01/08 13:49:05;;;;;;;0.30;0.30;;;;;;;;;;5036244;28;20072;-85
2023/01/08 13:51:41;;;;;;;0.88;0.40;;;;;;;;;;5041790;28;20049;-87
2023/01/08 13:54:19;;;;;;;0.73;0.20;;;;;;;;;;5039845;28;20055;-86
2023/01/08 13:56:54;;;;;;;3.47;0.55;;;;;;;;;;5043006;28;20045;-88
2023/01/08 13:59:31;;;;;;;0.30;0.30;;;;;;;;;;5041175;28;20052;-87
2023/01/08 14:02:03;;;;;;;0.90;0.40;;;;;;;;;;5029746;28;20527;-88
2023/01/08 14:04:35;;;;;;;0.57;0.45;;;;;;;;;;5045274;28;20052;-88
2023/01/08 14:07:13;;;;;;;0.85;0.50;;;;;;;;;;5031796;28;20052;-88
2023/01/08 14:09:41;;;;;;;0.30;0.30;;;;;;;;;;5041326;28;20065;-87
2023/01/08 14:12:13;;;;;;;0.60;0.57;;;;;;;;;;5037329;28;20060;-88
2023/01/08 14:14:49;;;;;;;1.30;0.82;;;;;;;;;;5042760;28;20050;-88
2023/01/08 14:17:18;;;;;;;1.02;0.32;;;;;;;;;;5047138;28;20533;-88
2023/01/08 14:19:46;;;;;;;0.35;0.20;;;;;;;;;;5038697;28;20060;-88
2023/01/08 14:22:19;;;;;;;0.85;0.60;;;;;;;;;;5045157;28;20049;-89
2023/01/08 14:24:50;;;;;;;2.05;0.85;;;;;;;;;;5043636;28;20452;-88
2023/01/08 14:27:24;;;;;;;0.82;0.68;;;;;;;;;;5039424;28;20073;-89
2023/01/08 14:29:52;;;;;;;1.85;0.57;;;;;;;;;;5037991;28;20822;-89
2023/01/08 14:32:23;;;;;;;0.28;0.28;;;;;;;;;;5052813;28;20055;-88
2023/01/08 14:34:54;;;;;;;0.28;0.28;;;;;;;;;;5041051;28;20156;-89
2023/01/08 14:37:22;;;;;;;0.20;0.20;;;;;;;;;;5049519;28;20057;-89
2023/01/08 14:39:51;;;;;;;0.43;0.43;;;;;;;;;;5051553;28;20194;-88
2023/01/08 14:42:42;;;;;;;11.98;0.60;;;;;;;;;;5046902;28;20053;-88
2023/01/08 14:45:15;;;;;;;0.35;0.35;;;;;;;;;;5046621;28;20228;-88
2023/01/08 14:47:45;;;;;;;4.95;1.02;;;;;;;;;;5040071;28;20507;-88
2023/01/08 14:50:19;;;;;;;0.45;0.45;;;;;;;;;;5043467;28;20063;-88
2023/01/08 14:52:47;;;;;;;2.58;0.95;;;;;;;;;;5060959;28;20064;-88
2023/01/08 14:55:18;;;;;;;0.45;0.20;;;;;;;;;;5043206;28;20049;-89
2023/01/08 14:57:48;;;;;;;1.27;0.50;;;;;;;;;;5051934;28;20044;-88
2023/01/08 15:00:26;;;;;;;22.90;1.08;;;;;;;;;;5049498;28;20084;-88